22:38
Airports
History
Links
Donate
Help keep this website running!
PayPal
Bitcoin
Information on this page is community maintained and may be outdated or inaccurate and is intended for reference only or PC simulator navigating.
Always use approved charts for navigating.
IA33
Dads Field
Dads Field (IA33)
Rockwell, Iowa, United States (50469)
4
Lat/Lng:43° 0' 43" N / 93° 14' 32.73" W
43.011944 / -93.242426
Elevation:1200'ft 366mMSL
ID / ICAO:IA33
Runways:1
Longest:(09-27) 788.6m 2,587ft Grass
Distance To
Airport ID:
Nearby VORs <50NM
Nearby NDBs
Nearby WeatherUpdated 06-28-17 21:53 GMT
Nearby weather at KMCW, Mason City Muni located 11.0 nautical miles from IA33
Altimeter: 29.61
Visibility: 10.0 statute miles
Wind: 15 knots (240°)
Temp: 27°c 81°f
Humidity: 69.8%

METAR: KMCW 282153Z AUTO 24015G19KT 10SM CLR 27/21 A2961 RMK AO2 SLP013 T02720211

(Powered by phpweather)
Runway 09 / 27
Dimensions:788.6 x 29m 2587' x 95'ft
Surface:Grass
Runway 09 [A]Runway 27 [B]
Heading:092°TH 272°TH
Lat:
Lng:
43° 0' 43.67"N
93° 14' 50.26"W
43° 0' 42.33"N
93° 14' 15.2"W
User Notes and Comments
Google Map
Nearby Airports
(U) Mason City Muni 11.0 NM
KMCW (WX) NNW 336°
4 Spotts Field 12.3 NM
1Y6 NE 45°
(R) Beeds Lake 16.9 NM
IA31 S 180°
(U) Hampton Muni 19.9 NM
KHPT S 177°
4 Folkerts 20.5 NM
2Y5 ENE 63°
4 Belmond Muni 20.9 NM
Y48 WSW 238°
(U) Forest City Muni 24.6 NM
KFXY NW 308°
VFR Chart
Flight Planning at SkyVector.com